sim
Sign-in with your pilot id or email,
or register
Callsign
Passwort

Schedule Details

Flight Number: OEO3374
Departure: Dortmund Airport (EDLW) at 04:00
Arrival: Fuerteventura Airport (GCFV) at 08:45

Weather Information
Getting current METAR information for EDLW 222220Z AUTO 17006KT 9999 // NCD 18/14 Q1023
Getting current METAR information for GCFV 222200Z 35016KT CAVOK 22/17 Q1018

Schedule Frequency

Route Map